This is the latest recevied weather packets stored in our database for station/object VK6WB. If no packets are shown the sender has not sent any weather packets the latest 10 day(s).
| Time | Temp. | Humidity | Pressure | Rain* | Wind** | Luminosity | Snow |
|---|---|---|---|---|---|---|---|
| 1777953605 | 21.67° C | 30% | 1021.8 hPa | 0 mm | - | 65 W/m² | - |
| 1777953004 | 22.22° C | 25% | 1022 hPa | 0 mm | - | 65 W/m² | - |
| 1777952405 | 22.22° C | 23% | 1022.1 hPa | 0 mm | - | 65 W/m² | - |
| 1777951804 | 21.67° C | 21% | 1022.1 hPa | 0 mm | - | 65 W/m² | - |
| 1777951204 | 21.67° C | 18% | 1022.4 hPa | 0 mm | - | 65 W/m² | - |
| 1777950604 | 21.67° C | 16% | 1022.4 hPa | 0 mm | - | 65 W/m² | - |
| 1777950005 | 21.67° C | 13% | 1022.4 hPa | 0 mm | - | 65 W/m² | - |
| 1777949404 | 21.11° C | 11% | 1022.6 hPa | 0 mm | - | 65 W/m² | - |
| 1777948805 | 21.11° C | 10% | 1022.5 hPa | 0 mm | - | 65 W/m² | - |
| 1777948204 | 20.56° C | 10% | 1022.6 hPa | 0 mm | - | 65 W/m² | - |
| 1777947604 | 21.11° C | 10% | 1022.5 hPa | 0 mm | - | 65 W/m² | - |
| 1777947004 | 20° C | 10% | 1022.6 hPa | 0 mm | - | 65 W/m² | - |
| 1777946404 | 19.44° C | 10% | 1022.6 hPa | 0 mm | - | 65 W/m² | - |
| 1777945805 | 18.89° C | 10% | 1022.7 hPa | 0 mm | - | 65 W/m² | - |
| 1777945204 | 18.33° C | 10% | 1022.7 hPa | 0 mm | - | 65 W/m² | - |
| 1777944605 | 17.78° C | 10% | 1022.8 hPa | 0 mm | - | 65 W/m² | - |
| 1777944004 | 17.22° C | 10% | 1022.9 hPa | 0 mm | - | 65 W/m² | - |
| 1777943404 | 16.67° C | 10% | 1022.8 hPa | 0 mm | - | 65 W/m² | - |
| 1777942805 | 16.67° C | 10% | 1022.8 hPa | 0 mm | - | 65 W/m² | - |
| 1777942204 | 15.56° C | 10% | 1022.7 hPa | 0 mm | - | 65 W/m² | - |
| 1777941604 | 15.56° C | 10% | 1022.6 hPa | 0 mm | - | 65 W/m² | - |
| 1777941005 | 8.33° C | 10% | 1022.8 hPa | 0 mm | - | 65 W/m² | - |
| 1777940404 | 15° C | 10% | 1022.5 hPa | 0 mm | - | 65 W/m² | - |
| 1777939804 | 13.89° C | 10% | 1022.5 hPa | 0 mm | - | 65 W/m² | - |
| 1777939205 | 13.33° C | 10% | 1022.4 hPa | 0 mm | - | 65 W/m² | - |
* Rain latest hour (hover to see other rain measurements)
** Current wind speed in m/s (hover to see current wind gust speed)